createdAt,value
2022-11-21T00:01:24.159Z,24.58
2022-11-21T00:03:51.390Z,23.60
2022-11-21T00:06:19.562Z,21.42
2022-11-21T00:08:47.135Z,25.25
2022-11-21T00:11:14.268Z,27.23
2022-11-21T00:13:41.240Z,28.98
2022-11-21T00:16:13.501Z,25.27
2022-11-21T00:18:40.670Z,22.52
2022-11-21T00:21:15.777Z,22.35
2022-11-21T00:23:43.910Z,32.83
2022-11-21T00:26:12.530Z,22.20
2022-11-21T00:28:39.659Z,22.90
2022-11-21T00:31:07.240Z,24.48
2022-11-21T00:33:39.107Z,26.67
2022-11-21T00:36:10.046Z,24.35
2022-11-21T00:38:37.578Z,21.92
2022-11-21T00:41:05.083Z,27.05
2022-11-21T00:43:32.333Z,24.15
2022-11-21T00:46:01.420Z,26.58
2022-11-21T00:48:29.794Z,25.98
2022-11-21T00:50:56.841Z,26.23
2022-11-21T00:53:23.805Z,28.60
2022-11-21T00:55:50.699Z,29.38
2022-11-21T00:58:17.682Z,27.77
2022-11-21T01:00:44.695Z,31.02
2022-11-21T01:03:11.691Z,31.00
2022-11-21T01:05:38.654Z,28.20
2022-11-21T01:08:05.961Z,29.35
2022-11-21T01:10:35.515Z,25.83
2022-11-21T01:13:02.851Z,28.17
2022-11-21T01:15:29.818Z,21.33
2022-11-21T01:17:56.775Z,29.00
2022-11-21T01:20:23.716Z,30.75
2022-11-21T01:22:50.713Z,27.35
2022-11-21T01:25:17.695Z,28.15
2022-11-21T01:27:44.692Z,29.55
2022-11-21T01:30:12.200Z,30.42
2022-11-21T01:32:39.150Z,29.27
2022-11-21T01:35:06.665Z,31.05
2022-11-21T01:37:33.631Z,31.58
2022-11-21T01:40:00.630Z,31.98
2022-11-21T01:42:27.598Z,36.10
2022-11-21T01:44:54.755Z,35.92
2022-11-21T01:47:22.860Z,35.17
2022-11-21T01:49:52.290Z,35.17
2022-11-21T01:52:27.513Z,35.80
2022-11-21T01:55:00.665Z,32.72
2022-11-21T01:57:29.297Z,38.47
2022-11-21T01:59:56.199Z,29.25
2022-11-21T02:02:27.378Z,34.88
2022-11-21T02:04:55.913Z,39.95
2022-11-21T02:07:24.639Z,32.20
2022-11-21T02:09:56.163Z,30.60
2022-11-21T02:12:28.808Z,36.33
2022-11-21T02:14:56.726Z,38.90
2022-11-21T02:17:24.262Z,34.72
2022-11-21T02:19:57.228Z,35.60
2022-11-21T02:22:27.295Z,36.50
2022-11-21T02:25:09.883Z,35.42
2022-11-21T02:27:36.940Z,38.72
2022-11-21T02:30:06.507Z,40.50
2022-11-21T02:32:48.181Z,39.95
2022-11-21T02:35:17.446Z,41.17
2022-11-21T02:38:03.517Z,46.47
2022-11-21T02:41:11.114Z,47.20
2022-11-21T02:43:38.076Z,39.05
2022-11-21T02:46:05.110Z,43.38
2022-11-21T02:48:32.258Z,40.60
2022-11-21T02:50:59.286Z,42.45
2022-11-21T02:53:26.412Z,42.33
2022-11-21T02:55:53.469Z,42.70
2022-11-21T02:58:20.657Z,45.80
2022-11-21T03:00:47.983Z,47.85
2022-11-21T03:03:15.111Z,41.88
2022-11-21T03:05:42.459Z,46.45
2022-11-21T03:08:10.285Z,44.13
2022-11-21T03:10:37.552Z,48.72
2022-11-21T03:13:04.579Z,43.22
2022-11-21T03:15:34.422Z,48.75
2022-11-21T03:18:03.168Z,42.38
2022-11-21T03:20:32.061Z,47.55
2022-11-21T03:22:59.232Z,43.20
2022-11-21T03:25:26.694Z,49.28
2022-11-21T03:27:54.719Z,45.03
2022-11-21T03:30:25.759Z,49.67
2022-11-21T03:32:56.630Z,50.03
2022-11-21T03:35:24.022Z,48.13
2022-11-21T03:37:50.990Z,52.15
2022-11-21T03:40:18.413Z,46.55
2022-11-21T03:42:45.649Z,44.22
2022-11-21T03:45:12.935Z,41.25
2022-11-21T03:47:40.606Z,45.63
2022-11-21T03:50:08.063Z,42.92
2022-11-21T03:52:35.128Z,43.25
2022-11-21T03:55:02.274Z,50.50
2022-11-21T03:57:29.346Z,41.58
2022-11-21T03:59:56.759Z,46.25
2022-11-21T04:02:23.842Z,47.63
2022-11-21T04:04:51.228Z,47.08
2022-11-21T04:07:18.230Z,53.42
2022-11-21T04:09:45.234Z,47.80
2022-11-21T04:12:12.682Z,53.20
2022-11-21T04:14:39.728Z,52.67
2022-11-21T04:17:06.912Z,49.85
2022-11-21T04:19:33.931Z,55.40
2022-11-21T04:22:01.031Z,43.85
2022-11-21T04:24:28.243Z,43.03
2022-11-21T04:26:55.891Z,47.40
2022-11-21T04:29:22.936Z,48.25
2022-11-21T04:31:50.011Z,50.15
2022-11-21T04:34:17.030Z,51.08
2022-11-21T04:36:44.037Z,50.17
2022-11-21T04:39:11.100Z,46.80
2022-11-21T04:41:38.037Z,46.40
2022-11-21T04:44:05.243Z,50.33
2022-11-21T04:46:32.837Z,41.80
2022-11-21T04:49:00.345Z,45.10
2022-11-21T04:51:27.428Z,50.67
2022-11-21T04:53:54.435Z,50.17
2022-11-21T04:56:21.542Z,49.65
2022-11-21T04:58:53.143Z,42.85
2022-11-21T05:01:20.341Z,50.72
2022-11-21T05:03:47.681Z,59.78
2022-11-21T05:06:14.645Z,54.70
2022-11-21T05:08:42.312Z,54.85
2022-11-21T05:11:38.434Z,60.15
2022-11-21T05:14:06.080Z,51.65
2022-11-21T05:16:34.204Z,51.90
2022-11-21T05:19:01.347Z,54.15
2022-11-21T05:21:28.474Z,55.42
2022-11-21T05:23:55.640Z,53.58
2022-11-21T05:26:22.857Z,56.45
2022-11-21T05:28:49.863Z,58.75
2022-11-21T05:31:16.778Z,59.58
2022-11-21T05:33:43.877Z,58.38
2022-11-21T05:36:10.968Z,61.33
2022-11-21T05:38:38.174Z,68.82
2022-11-21T05:41:05.214Z,63.50
2022-11-21T05:43:47.171Z,56.92
2022-11-21T05:46:19.602Z,55.20
2022-11-21T05:48:48.055Z,59.45
2022-11-21T05:51:19.811Z,57.15
2022-11-21T05:53:47.583Z,59.88
2022-11-21T05:56:17.215Z,60.03
2022-11-21T05:58:45.237Z,56.67
2022-11-21T06:01:14.711Z,58.38
2022-11-21T06:03:43.198Z,65.28
2022-11-21T06:06:17.658Z,59.20
2022-11-21T06:08:47.473Z,67.35
2022-11-21T06:11:16.477Z,54.40
2022-11-21T06:13:43.856Z,58.17
2022-11-21T06:16:13.255Z,58.03
2022-11-21T06:18:45.365Z,68.30
2022-11-21T06:21:17.731Z,55.28
2022-11-21T06:23:45.542Z,51.80
2022-11-21T06:26:14.747Z,58.25
2022-11-21T06:28:42.790Z,53.50
2022-11-21T06:31:15.696Z,55.25
2022-11-21T06:33:43.666Z,49.03
2022-11-21T06:36:13.517Z,50.67
2022-11-21T06:38:40.543Z,52.33
2022-11-21T06:41:12.442Z,51.70
2022-11-21T06:43:39.500Z,52.50
2022-11-21T06:46:07.066Z,50.40
2022-11-21T06:48:35.527Z,50.13
2022-11-21T06:51:21.853Z,51.38
2022-11-21T06:53:56.709Z,51.90
2022-11-21T06:56:32.798Z,44.75
2022-11-21T06:58:59.945Z,45.50
2022-11-21T07:01:28.348Z,48.40
2022-11-21T07:03:55.627Z,44.80
2022-11-21T07:06:23.589Z,45.83
2022-11-21T07:09:17.481Z,40.25
2022-11-21T07:11:41.614Z,38.55
2022-11-21T07:14:09.733Z,36.65
2022-11-21T07:16:36.957Z,40.17
2022-11-21T07:19:03.918Z,45.30
2022-11-21T07:21:31.091Z,47.92
2022-11-21T07:23:58.105Z,39.70
2022-11-21T07:26:25.084Z,36.22
2022-11-21T07:28:52.104Z,41.20
2022-11-21T07:31:19.132Z,41.50
2022-11-21T07:33:47.607Z,39.00
2022-11-21T07:36:14.704Z,37.05
2022-11-21T07:38:42.329Z,32.03
2022-11-21T07:41:10.227Z,38.25
2022-11-21T07:43:37.289Z,38.10
2022-11-21T07:46:04.275Z,47.05
2022-11-21T07:48:31.258Z,47.30
2022-11-21T07:50:58.363Z,54.80
2022-11-21T07:53:25.449Z,45.83
2022-11-21T07:55:52.410Z,63.38
2022-11-21T07:58:19.591Z,62.22
2022-11-21T08:00:46.540Z,46.28
2022-11-21T08:03:13.845Z,46.05
2022-11-21T08:05:44.114Z,41.58
2022-11-21T08:08:12.989Z,45.45
2022-11-21T08:10:42.285Z,39.90
2022-11-21T08:13:09.492Z,44.75
2022-11-21T08:15:37.026Z,51.63
2022-11-21T08:18:11.692Z,52.42
2022-11-21T08:20:38.811Z,54.35
2022-11-21T08:23:06.892Z,50.15
2022-11-21T08:25:41.251Z,50.65
2022-11-21T08:28:10.380Z,47.13
2022-11-21T08:30:39.545Z,47.97
2022-11-21T08:33:07.109Z,53.58
2022-11-21T08:35:37.728Z,45.85
2022-11-21T08:38:05.434Z,43.90
2022-11-21T08:40:33.524Z,52.08
2022-11-21T08:43:02.757Z,44.92
2022-11-21T08:45:30.687Z,47.55
2022-11-21T08:47:58.058Z,46.88
2022-11-21T08:50:25.221Z,45.92
2022-11-21T08:52:52.350Z,50.80
2022-11-21T08:55:19.627Z,46.45
2022-11-21T08:57:46.675Z,47.55
2022-11-21T09:00:14.480Z,50.03
2022-11-21T09:02:41.951Z,52.42
2022-11-21T09:05:09.753Z,50.17
2022-11-21T09:07:37.310Z,49.00
2022-11-21T09:10:04.795Z,45.03
2022-11-21T09:12:32.108Z,53.97
2022-11-21T09:15:17.592Z,47.10
2022-11-21T09:18:03.051Z,47.83
2022-11-21T09:20:34.744Z,47.13
2022-11-21T09:23:06.422Z,44.67
2022-11-21T09:25:34.333Z,43.53
2022-11-21T09:28:03.791Z,45.00
2022-11-21T09:30:31.095Z,45.63
2022-11-21T09:33:04.908Z,46.38
2022-11-21T09:35:31.912Z,42.72
2022-11-21T09:37:59.552Z,41.92
2022-11-21T09:40:27.594Z,58.70
2022-11-21T09:43:39.224Z,46.72
2022-11-21T09:46:18.627Z,45.15
2022-11-21T09:48:58.413Z,46.63
2022-11-21T09:51:29.769Z,44.38
2022-11-21T09:54:20.261Z,43.17
2022-11-21T09:56:47.857Z,41.03
2022-11-21T09:59:29.502Z,44.63
2022-11-21T10:01:56.602Z,44.92
2022-11-21T10:04:23.859Z,40.28
2022-11-21T10:07:22.472Z,40.58
2022-11-21T10:10:38.512Z,41.92
2022-11-21T10:13:46.600Z,42.85
2022-11-21T10:16:34.066Z,41.50
2022-11-21T10:19:16.090Z,43.63
2022-11-21T10:21:49.546Z,49.25
2022-11-21T10:24:19.182Z,46.15
2022-11-21T10:27:01.187Z,44.45
2022-11-21T10:29:37.230Z,49.78
2022-11-21T10:32:24.894Z,48.42
2022-11-21T10:35:13.413Z,45.63
2022-11-21T10:37:46.993Z,49.90
2022-11-21T10:43:44.316Z,57.40
2022-11-21T10:46:11.346Z,48.40
2022-11-21T10:48:38.547Z,49.88
2022-11-21T10:51:38.571Z,46.15
2022-11-21T10:54:29.722Z,53.03
2022-11-21T10:57:15.991Z,48.17
2022-11-21T11:00:02.232Z,54.05
2022-11-21T11:02:29.139Z,48.53
2022-11-21T11:05:37.834Z,47.70
2022-11-21T11:08:14.227Z,51.35
2022-11-21T11:10:43.814Z,49.55
2022-11-21T11:13:50.920Z,46.20
2022-11-21T11:16:21.365Z,49.83
2022-11-21T11:19:17.351Z,51.17
2022-11-21T11:21:46.263Z,49.53
2022-11-21T11:24:13.171Z,49.45
2022-11-21T11:26:49.509Z,50.60
2022-11-21T11:29:20.084Z,48.92
2022-11-21T11:31:49.751Z,46.55
2022-11-21T11:34:17.815Z,54.53
2022-11-21T11:36:55.188Z,48.92
2022-11-21T11:39:39.591Z,46.47
2022-11-21T11:42:34.136Z,47.47
2022-11-21T11:45:39.058Z,46.78
2022-11-21T11:48:12.701Z,51.33
2022-11-21T11:53:18.702Z,45.83
2022-11-21T11:55:55.988Z,48.78
2022-11-21T11:58:47.554Z,46.92
2022-11-21T12:01:29.486Z,50.25
2022-11-21T12:04:21.423Z,52.65
2022-11-21T12:10:03.427Z,47.22
2022-11-21T12:12:37.374Z,46.42
2022-11-21T12:15:50.583Z,43.50
2022-11-21T12:18:26.155Z,43.80
2022-11-21T12:21:09.166Z,45.50
2022-11-21T12:23:47.066Z,57.83
2022-11-21T12:26:20.104Z,44.22
2022-11-21T12:29:08.290Z,54.80
2022-11-21T12:31:43.845Z,48.90
2022-11-21T12:34:24.301Z,47.97
2022-11-21T12:37:22.154Z,49.17
2022-11-21T12:40:21.417Z,44.00
2022-11-21T12:43:25.497Z,48.00
2022-11-21T12:46:20.085Z,45.00
2022-11-21T12:49:21.445Z,55.40
2022-11-21T12:52:42.238Z,49.70
2022-11-21T12:55:15.515Z,49.08
2022-11-21T13:03:03.746Z,51.37
2022-11-21T13:13:10.267Z,63.92
2022-11-21T13:16:11.691Z,60.17
2022-11-21T13:18:48.549Z,59.40
2022-11-21T13:21:46.036Z,60.65
2022-11-21T13:24:45.243Z,64.20
2022-11-21T13:27:38.938Z,61.58
2022-11-21T13:30:12.030Z,64.72
2022-11-21T13:32:43.578Z,64.63
2022-11-21T13:35:19.654Z,66.47
2022-11-21T13:37:49.652Z,74.00
2022-11-21T13:40:31.414Z,65.00
2022-11-21T13:43:32.508Z,65.95
2022-11-21T13:45:59.428Z,68.45
2022-11-21T13:48:34.593Z,67.30
2022-11-21T13:51:10.461Z,71.55
2022-11-21T13:54:09.090Z,71.18
2022-11-21T13:56:39.067Z,81.82
2022-11-21T13:59:15.154Z,83.07
2022-11-21T14:02:20.927Z,79.60
2022-11-21T14:05:33.529Z,87.53
2022-11-21T14:08:33.480Z,77.57
2022-11-21T14:11:30.024Z,78.95
2022-11-21T14:13:57.030Z,87.03
2022-11-21T14:16:49.395Z,82.32
2022-11-21T14:19:20.670Z,80.88
2022-11-21T14:21:49.207Z,82.93
2022-11-21T14:24:19.638Z,89.13
2022-11-21T14:26:49.916Z,94.15
2022-11-21T14:29:28.010Z,83.70
2022-11-21T14:31:56.114Z,87.22
2022-11-21T14:34:28.835Z,83.78
2022-11-21T14:36:59.692Z,82.78
2022-11-21T14:39:38.763Z,86.20
2022-11-21T14:42:15.574Z,95.43
2022-11-21T14:44:44.573Z,86.95
2022-11-21T14:47:25.853Z,80.68
2022-11-21T14:52:59.426Z,83.68
2022-11-21T14:55:31.019Z,92.32
2022-11-21T14:58:01.504Z,83.82
2022-11-21T15:00:58.051Z,90.10
2022-11-21T15:03:21.106Z,94.43
2022-11-21T15:06:06.905Z,98.60
2022-11-21T15:11:28.187Z,106.78
2022-11-21T15:14:17.287Z,103.07
2022-11-21T15:16:50.384Z,97.60
2022-11-21T15:19:21.729Z,98.07
2022-11-21T15:21:51.331Z,96.50
2022-11-21T15:24:30.122Z,99.07
2022-11-21T15:26:57.791Z,95.75
2022-11-21T15:29:25.058Z,104.47
2022-11-21T15:34:59.701Z,93.13
2022-11-21T15:37:27.864Z,91.65
2022-11-21T15:39:55.005Z,101.10
2022-11-21T15:42:34.136Z,108.88
2022-11-21T15:45:19.553Z,114.65
2022-11-21T15:47:47.508Z,122.28
2022-11-21T15:50:15.281Z,100.47
2022-11-21T15:52:50.631Z,109.93
2022-11-21T15:55:21.336Z,98.25
2022-11-21T15:57:15.365Z,100.80
2022-11-21T15:57:48.579Z,105.30
2022-11-21T16:00:17.420Z,103.10
2022-11-21T16:02:44.425Z,106.55
2022-11-21T16:05:13.124Z,109.60
2022-11-21T16:07:40.977Z,101.78
2022-11-21T16:10:15.374Z,104.82
2022-11-21T16:12:47.058Z,112.60
2022-11-21T16:15:14.326Z,120.97
2022-11-21T16:17:41.765Z,115.97
2022-11-21T16:20:09.267Z,101.50
2022-11-21T16:22:36.179Z,111.20
2022-11-21T16:25:03.266Z,116.45
2022-11-21T16:27:32.436Z,100.85
2022-11-21T16:29:59.431Z,103.57
2022-11-21T16:32:26.689Z,110.00
2022-11-21T16:34:54.769Z,112.82
2022-11-21T16:37:21.727Z,119.63
2022-11-21T16:39:52.079Z,114.90
2022-11-21T16:42:20.444Z,115.70
2022-11-21T16:44:48.162Z,112.72
2022-11-21T16:47:15.753Z,121.57
2022-11-21T16:49:48.434Z,116.72
2022-11-21T16:52:16.106Z,116.33
2022-11-21T16:54:43.101Z,127.57
2022-11-21T16:57:10.323Z,114.80
2022-11-21T16:59:37.320Z,114.63
2022-11-21T17:02:04.687Z,124.47
2022-11-21T17:04:32.112Z,117.43
2022-11-21T17:07:01.159Z,116.25
2022-11-21T17:09:28.504Z,117.32
2022-11-21T17:11:57.948Z,114.15
2022-11-21T17:14:25.016Z,111.60
2022-11-21T17:16:52.006Z,116.05
2022-11-21T17:19:19.023Z,101.97
2022-11-21T17:21:45.984Z,104.85
2022-11-21T17:24:13.568Z,112.05
2022-11-21T17:26:40.598Z,102.15
2022-11-21T17:29:07.803Z,102.07
2022-11-21T17:31:34.857Z,103.72
2022-11-21T17:34:02.048Z,101.78
2022-11-21T17:36:30.454Z,98.38
2022-11-21T17:38:57.499Z,96.28
2022-11-21T17:41:25.312Z,97.07
2022-11-21T17:43:59.743Z,97.70
2022-11-21T17:46:28.232Z,96.07
2022-11-21T17:48:59.180Z,95.40
2022-11-21T17:51:34.421Z,99.07
2022-11-21T17:54:02.669Z,107.90
2022-11-21T17:56:32.321Z,122.95
2022-11-21T17:58:59.960Z,103.15
2022-11-21T18:01:27.558Z,112.40
2022-11-21T18:04:10.290Z,123.40
2022-11-21T18:06:41.802Z,101.57
2022-11-21T18:09:13.638Z,101.10
2022-11-21T18:11:41.042Z,100.18
2022-11-21T18:14:10.317Z,98.47
2022-11-21T18:16:39.454Z,99.63
2022-11-21T18:19:07.716Z,107.70
2022-11-21T18:21:38.177Z,114.65
2022-11-21T18:24:05.399Z,107.75
2022-11-21T18:26:35.517Z,110.38
2022-11-21T18:31:50.964Z,112.72
2022-11-21T18:34:18.055Z,96.07
2022-11-21T18:36:45.030Z,104.57
2022-11-21T18:39:15.021Z,96.97
2022-11-21T18:41:42.910Z,91.18
2022-11-21T18:44:10.273Z,91.57
2022-11-21T18:46:38.772Z,81.85
2022-11-21T18:49:08.011Z,86.90
2022-11-21T18:51:36.547Z,84.15
2022-11-21T18:54:10.513Z,76.55
2022-11-21T18:56:38.790Z,69.97
2022-11-21T18:59:06.677Z,76.38
2022-11-21T19:01:35.825Z,65.03
2022-11-21T19:04:03.460Z,56.72
2022-11-21T19:06:30.466Z,63.30
2022-11-21T19:08:58.367Z,50.38
2022-11-21T19:11:27.843Z,43.10
2022-11-21T19:13:56.048Z,47.28
2022-11-21T19:16:24.979Z,49.65
2022-11-21T19:21:43.557Z,44.53
2022-11-21T19:24:15.129Z,46.42
2022-11-21T19:26:42.502Z,41.30
2022-11-21T19:29:09.836Z,37.47
2022-11-21T19:31:42.998Z,54.42
2022-11-21T19:34:15.527Z,49.63
2022-11-21T19:36:43.121Z,68.00
2022-11-21T19:39:10.255Z,82.68
2022-11-21T19:41:37.476Z,71.72
2022-11-21T19:44:04.506Z,59.85
2022-11-21T19:46:37.163Z,63.88
2022-11-21T19:49:06.587Z,57.13
2022-11-21T19:51:41.837Z,54.00
2022-11-21T19:54:11.190Z,50.72
2022-11-21T19:56:38.184Z,43.35
2022-11-21T19:59:05.593Z,47.97
2022-11-21T20:01:34.892Z,44.67
2022-11-21T20:04:04.582Z,43.65
2022-11-21T20:06:37.005Z,39.45
2022-11-21T20:09:15.740Z,47.42
2022-11-21T20:11:45.424Z,40.42
2022-11-21T20:14:21.517Z,33.05
2022-11-21T20:16:50.105Z,29.35
2022-11-21T20:19:19.233Z,38.38
2022-11-21T20:21:47.177Z,44.25
2022-11-21T20:24:14.770Z,35.08
2022-11-21T20:26:42.499Z,26.92
2022-11-21T20:29:13.242Z,32.95
2022-11-21T20:31:40.398Z,36.15
2022-11-21T20:34:12.598Z,31.52
2022-11-21T20:36:40.350Z,33.72
2022-11-21T20:39:18.553Z,28.27
2022-11-21T20:41:46.410Z,34.38
2022-11-21T20:47:10.382Z,26.13
2022-11-21T20:49:37.578Z,22.42
2022-11-21T20:54:55.411Z,23.98
2022-11-21T20:57:43.615Z,28.17
2022-11-21T21:00:11.898Z,25.67
2022-11-21T21:02:38.835Z,20.02
2022-11-21T21:05:06.263Z,24.35
2022-11-21T21:07:35.148Z,22.50
2022-11-21T21:10:02.643Z,20.52
2022-11-21T21:12:31.331Z,21.85
2022-11-21T21:14:58.375Z,21.83
2022-11-21T21:17:25.568Z,23.65
2022-11-21T21:19:57.890Z,25.48
2022-11-21T21:22:25.027Z,26.10
2022-11-21T21:24:51.943Z,24.65
2022-11-21T21:27:25.575Z,20.75
2022-11-21T21:29:53.457Z,24.83
2022-11-21T21:32:47.566Z,28.70
2022-11-21T21:35:17.690Z,22.65
2022-11-21T21:37:47.089Z,31.42
2022-11-21T21:40:16.518Z,25.25
2022-11-21T21:42:43.441Z,26.25
2022-11-21T21:45:10.892Z,27.13
2022-11-21T21:47:38.191Z,31.75
2022-11-21T21:50:05.528Z,26.55
2022-11-21T21:52:32.511Z,26.10
2022-11-21T21:54:59.433Z,26.15
2022-11-21T21:57:26.353Z,22.27
2022-11-21T21:59:53.326Z,26.73
2022-11-21T22:02:20.297Z,27.05
2022-11-21T22:04:51.805Z,22.33
2022-11-21T22:07:19.137Z,23.85
2022-11-21T22:09:46.080Z,27.50
2022-11-21T22:12:14.127Z,23.85
2022-11-21T22:14:41.080Z,27.35
2022-11-21T22:17:08.198Z,23.65
2022-11-21T22:19:35.187Z,28.90
2022-11-21T22:22:02.085Z,23.98
2022-11-21T22:24:29.041Z,28.98
2022-11-21T22:26:56.024Z,24.55
2022-11-21T22:29:23.152Z,22.67
2022-11-21T22:31:50.959Z,24.95
2022-11-21T22:34:18.065Z,24.77
2022-11-21T22:36:46.708Z,31.45
2022-11-21T22:39:13.915Z,31.73
2022-11-21T22:41:40.858Z,30.67
2022-11-21T22:44:07.779Z,25.02
2022-11-21T22:46:34.836Z,21.65
2022-11-21T22:49:01.802Z,26.80
2022-11-21T22:51:29.917Z,21.48
2022-11-21T22:53:57.661Z,29.77
2022-11-21T22:56:25.762Z,22.52
2022-11-21T22:58:52.771Z,21.63
2022-11-21T23:01:22.246Z,26.58
2022-11-21T23:03:50.302Z,26.70
2022-11-21T23:06:20.433Z,22.52
2022-11-21T23:08:47.950Z,26.45
2022-11-21T23:11:40.973Z,24.38
2022-11-21T23:14:44.663Z,26.13
2022-11-21T23:17:12.190Z,23.05
2022-11-21T23:19:39.180Z,23.83
2022-11-21T23:22:34.073Z,25.70
2022-11-21T23:25:01.059Z,25.02
2022-11-21T23:27:28.014Z,24.60
2022-11-21T23:29:54.903Z,19.15
2022-11-21T23:32:21.862Z,22.13
2022-11-21T23:35:00.560Z,13.80
2022-11-21T23:37:29.597Z,15.20
2022-11-21T23:39:56.536Z,19.50
2022-11-21T23:42:23.490Z,19.80
2022-11-21T23:44:50.525Z,24.17
2022-11-21T23:47:17.425Z,24.60
2022-11-21T23:49:52.114Z,17.00
2022-11-21T23:52:19.071Z,13.23
2022-11-21T23:54:46.023Z,13.82
2022-11-21T23:57:33.334Z,13.80
